Terminal Aerodrome Forecast
Issued by NWS Lake Charles, LA

Home | Current Version | Previous Version | Text Only | Print | Product List | Glossary On
Versions: 1 2 3 4 5 6 7 8 9 10 11 12 13 14 15 16 17
191
FTUS44 KLCH 040011 AAA
TAFLCH
TAF AMD
KLCH 040011Z 0400/0424 03014KT 4SM RA FEW004 BKN020 OVC030
      TEMPO 0400/0403 2SM +TSRA BR SCT006 BKN015 OVC035CB
     FM040300 05010KT P6SM -RA SCT008 OVC015
      TEMPO 0403/0406 2SM SHRA BR OVC008
     FM040600 07011KT 4SM -SHRA BR OVC008
     FM041800 03008KT 2SM -SHRA BR OVC015=

USA.gov is the U.S. government's official web portal to all federal, state and local government web resources and services.